Time;durP1;ratioP1;P1;durP2;ratioP2;P2;SDS_P1;SDS_P2;PMS_P1;PMS_P2;Temp;Humidity;BMP_temperature;BMP_pressure;BME280_temperature;BME280_humidity;BME280_pressure;Samples;Min_cycle;Max_cycle;Signal;HPM_P1;HPM_P2
2021/05/09 00:01:50;;;;;;;;;;;;;;;6.00;58.05;101010.67;1664028;85;20362;-74
2021/05/09 00:04:18;;;;;;;;;;;;;;;6.04;58.09;101010.72;1661634;85;20337;-74
2021/05/09 00:06:44;;;;;;;;;;;;;;;6.08;58.11;101007.75;1670140;85;20279;-74
2021/05/09 00:09:10;;;;;;;;;;;;;;;6.12;58.18;101005.65;1651237;85;20332;-74
2021/05/09 00:11:36;;;;;;;;;;;;;;;6.15;58.28;101003.97;1664548;85;20494;-74
2021/05/09 00:14:02;;;;;;;;;;;;;;;6.19;58.33;101007.00;1669874;85;20323;-75
2021/05/09 00:16:29;;;;;;;;;;;;;;;6.24;58.27;101006.58;1653678;85;20257;-74
2021/05/09 00:18:58;;;;;;;;;;;;;;;6.29;58.33;101006.19;1665772;85;20283;-74
2021/05/09 00:21:28;;;;;;;;;;;;;;;6.35;58.42;101005.80;1638090;86;20297;-74
2021/05/09 00:23:54;;;;;;;;;;;;;;;6.40;58.43;100997.70;1609587;87;20268;-74
2021/05/09 00:26:20;;;;;;;;;;;;;;;6.44;58.41;100998.17;1633496;86;20242;-74
2021/05/09 00:28:48;;;;;;;;;;;;;;;6.46;58.55;100994.77;1620305;87;20289;-75
2021/05/09 00:31:15;;;;;;;;;;;;;;;6.50;58.61;100989.22;1632503;87;20344;-75
2021/05/09 00:33:41;;;;;;;;;;;;;;;6.55;58.74;100991.39;1610111;89;20315;-75
2021/05/09 00:36:10;;;;;;;;;;;;;;;6.60;58.56;100989.29;1610175;88;20303;-75
2021/05/09 00:38:36;;;;;;;;;;;;;;;6.64;58.54;100984.61;1641946;87;20326;-75
2021/05/09 00:41:01;;;;;;;;;;;;;;;6.69;58.64;100988.91;1639208;86;20277;-75
2021/05/09 00:43:28;;;;;;;;;;;;;;;6.72;58.65;100988.93;1642256;87;20321;-75
2021/05/09 00:45:54;;;;;;;;;;;;;;;6.77;58.79;100985.50;1634326;86;20311;-74
2021/05/09 00:48:20;;;;;;;;;;;;;;;6.82;58.78;100984.24;1640827;87;20321;-74
2021/05/09 00:50:47;;;;;;;;;;;;;;;6.86;58.83;100983.41;1642395;86;20308;-74
2021/05/09 00:53:14;;;;;;;;;;;;;;;6.89;58.82;100978.28;1642000;87;20288;-74
2021/05/09 00:55:41;;;;;;;;;;;;;;;6.92;58.92;100971.88;1635797;86;20204;-74
2021/05/09 00:58:07;;;;;;;;;;;;;;;6.94;58.94;100965.02;1628687;87;20313;-74
2021/05/09 01:00:35;;;;;;;;;;;;;;;6.98;58.99;100967.62;1638446;87;20304;-74
2021/05/09 01:03:07;;;;;;;;;;;;;;;7.02;59.06;100963.34;1639895;87;20298;-74
2021/05/09 01:05:33;;;;;;;;;;;;;;;7.05;59.02;100959.50;1642221;87;20284;-74
2021/05/09 01:08:01;;;;;;;;;;;;;;;7.06;59.10;100958.66;1639735;87;20297;-75
2021/05/09 01:10:27;;;;;;;;;;;;;;;7.09;59.09;100959.09;1644779;87;20313;-74
2021/05/09 01:12:53;;;;;;;;;;;;;;;7.11;59.16;100958.24;1640138;86;20313;-74
2021/05/09 01:15:20;;;;;;;;;;;;;;;7.13;59.14;100954.39;1643203;85;20297;-75
2021/05/09 01:17:46;;;;;;;;;;;;;;;7.14;59.13;100955.69;1643803;85;20296;-75
2021/05/09 01:20:18;;;;;;;;;;;;;;;7.17;59.24;100950.98;1641324;85;20217;-74
2021/05/09 01:22:44;;;;;;;;;;;;;;;7.18;59.18;100945.84;1646528;85;20311;-75
2021/05/09 01:25:11;;;;;;;;;;;;;;;7.19;59.21;100946.27;1643710;86;20241;-75
2021/05/09 01:27:38;;;;;;;;;;;;;;;7.20;59.31;100935.56;1641131;87;20346;-75
2021/05/09 01:30:09;;;;;;;;;;;;;;;7.21;59.25;100938.56;1639417;86;20278;-74
2021/05/09 01:32:35;;;;;;;;;;;;;;;7.22;59.29;100934.70;1638098;86;20193;-75
2021/05/09 01:35:01;;;;;;;;;;;;;;;7.24;59.32;100939.86;1640547;87;20193;-75
2021/05/09 01:37:27;;;;;;;;;;;;;;;7.25;59.27;100933.43;1643194;86;20261;-75
2021/05/09 01:39:53;;;;;;;;;;;;;;;7.24;59.36;100933.00;1636214;86;20181;-74
2021/05/09 01:42:19;;;;;;;;;;;;;;;7.28;59.35;100932.12;1633075;87;20280;-74
2021/05/09 01:44:58;;;;;;;;;;;;;;;7.30;59.41;100927.84;1634782;87;20263;-74
2021/05/09 01:47:24;;;;;;;;;;;;;;;7.31;59.45;100930.84;1639091;87;20271;-74
2021/05/09 01:49:50;;;;;;;;;;;;;;;7.33;59.42;100931.27;1637256;86;20265;-74
2021/05/09 01:52:16;;;;;;;;;;;;;;;7.34;59.44;100935.13;1646428;86;20272;-74
2021/05/09 01:54:43;;;;;;;;;;;;;;;7.35;59.44;100927.84;1627096;87;20194;-74
2021/05/09 01:57:09;;;;;;;;;;;;;;;7.34;59.47;100923.98;1635740;85;20319;-74
2021/05/09 01:59:35;;;;;;;;;;;;;;;7.36;59.46;100925.70;1636099;85;20445;-74
2021/05/09 02:02:02;;;;;;;;;;;;;;;7.38;59.56;100921.42;1638824;85;20333;-74
2021/05/09 02:04:28;;;;;;;;;;;;;;;7.41;59.55;100924.00;1631292;87;20329;-74
2021/05/09 02:06:54;;;;;;;;;;;;;;;7.42;59.55;100923.58;1643134;86;20474;-74
2021/05/09 02:09:19;;;;;;;;;;;;;;;7.43;59.62;100921.01;1612066;87;20271;-74
2021/05/09 02:11:46;;;;;;;;;;;;;;;7.44;59.62;100907.72;1642324;86;20289;-74
2021/05/09 02:14:13;;;;;;;;;;;;;;;7.47;59.56;100915.44;1622016;87;20309;-74
2021/05/09 02:16:39;;;;;;;;;;;;;;;7.49;59.70;100915.88;1623853;87;20245;-74
2021/05/09 02:19:06;;;;;;;;;;;;;;;7.52;59.69;100913.73;1621313;87;20283;-74
2021/05/09 02:21:32;;;;;;;;;;;;;;;7.52;59.70;100917.59;1619774;87;20328;-74
2021/05/09 02:23:58;;;;;;;;;;;;;;;7.52;59.67;100917.59;1627378;86;20249;-74
2021/05/09 02:26:34;;;;;;;;;;;;;;;7.53;59.75;100917.59;1630908;86;20359;-74
2021/05/09 02:29:00;;;;;;;;;;;;;;;7.52;59.76;100912.02;1669001;85;173022;-74
2021/05/09 02:31:26;;;;;;;;;;;;;;;7.55;59.83;100908.59;1673047;85;20778;-75
2021/05/09 02:33:52;;;;;;;;;;;;;;;7.57;59.80;100911.59;1679394;84;20294;-75
2021/05/09 02:36:18;;;;;;;;;;;;;;;7.56;59.86;100907.30;1672716;85;20526;-75
2021/05/09 02:38:44;;;;;;;;;;;;;;;7.57;59.87;100907.73;1649891;86;20287;-75
2021/05/09 02:41:10;;;;;;;;;;;;;;;7.58;59.92;100904.73;1663107;85;20223;-75
2021/05/09 02:43:36;;;;;;;;;;;;;;;7.59;59.91;100901.30;1662622;85;20281;-75
2021/05/09 02:46:02;;;;;;;;;;;;;;;7.58;59.93;100900.45;1665690;84;20245;-75
2021/05/09 02:48:30;;;;;;;;;;;;;;;7.60;60.02;100897.87;1671765;84;20335;-75
2021/05/09 02:50:56;;;;;;;;;;;;;;;7.60;60.01;100889.72;1669166;85;20257;-74
2021/05/09 02:53:22;;;;;;;;;;;;;;;7.60;60.04;100884.58;1673873;84;20249;-74
2021/05/09 02:55:48;;;;;;;;;;;;;;;7.62;60.03;100889.72;1670174;85;20257;-75
2021/05/09 02:58:14;;;;;;;;;;;;;;;7.62;60.04;100881.58;1665600;85;20294;-74
2021/05/09 03:00:40;;;;;;;;;;;;;;;7.64;60.11;100886.30;1647661;85;20265;-74
2021/05/09 03:03:06;;;;;;;;;;;;;;;7.66;60.11;100879.00;1678348;84;20272;-74
2021/05/09 03:05:32;;;;;;;;;;;;;;;7.67;60.10;100879.44;1671255;84;20207;-74
2021/05/09 03:07:58;;;;;;;;;;;;;;;7.67;60.12;100881.58;1665193;85;20268;-75
2021/05/09 03:10:25;;;;;;;;;;;;;;;7.69;60.16;100882.87;1667798;84;20299;-75
2021/05/09 03:12:51;;;;;;;;;;;;;;;7.68;60.21;100883.30;1659904;85;20268;-75
2021/05/09 03:15:17;;;;;;;;;;;;;;;7.70;60.23;100879.00;1688921;84;20197;-74
2021/05/09 03:17:43;;;;;;;;;;;;;;;7.70;60.20;100875.14;1677325;85;20277;-75
2021/05/09 03:20:10;;;;;;;;;;;;;;;7.71;60.24;100882.01;1687837;84;20285;-75
2021/05/09 03:22:36;;;;;;;;;;;;;;;7.73;60.27;100875.14;1676120;85;20210;-75
2021/05/09 03:25:03;;;;;;;;;;;;;;;7.73;60.29;100875.58;1665993;84;20220;-74
2021/05/09 03:27:29;;;;;;;;;;;;;;;7.73;60.23;100871.28;1675892;85;20271;-74
2021/05/09 03:29:55;;;;;;;;;;;;;;;7.74;60.34;100869.14;1684860;84;20265;-74
2021/05/09 03:32:21;;;;;;;;;;;;;;;7.76;60.43;100870.00;1668285;85;20156;-75
2021/05/09 03:34:47;;;;;;;;;;;;;;;7.79;60.40;100875.58;1683361;85;20269;-75
2021/05/09 03:37:20;;;;;;;;;;;;;;;7.79;60.41;100871.71;1670161;85;20253;-75
2021/05/09 03:39:46;;;;;;;;;;;;;;;7.80;60.42;100875.54;1671030;84;20276;-74
2021/05/09 03:42:13;;;;;;;;;;;;;;;7.81;60.40;100880.26;1673878;85;20262;-75
2021/05/09 03:44:39;;;;;;;;;;;;;;;7.82;60.47;100875.11;1672258;85;20272;-75
2021/05/09 03:47:05;;;;;;;;;;;;;;;7.85;60.47;100869.96;1665039;85;20288;-75
2021/05/09 03:49:31;;;;;;;;;;;;;;;7.87;60.57;100873.39;1678267;85;20220;-75
2021/05/09 03:51:57;;;;;;;;;;;;;;;7.89;60.56;100869.09;1671482;84;20248;-75
2021/05/09 03:54:23;;;;;;;;;;;;;;;7.94;60.54;100865.23;1670792;85;20239;-74
2021/05/09 03:56:49;;;;;;;;;;;;;;;7.96;60.52;100865.66;1660696;85;20248;-74
2021/05/09 03:59:15;;;;;;;;;;;;;;;8.01;60.62;100864.80;1663493;85;20268;-75
2021/05/09 04:01:42;;;;;;;;;;;;;;;8.05;60.62;100869.94;1669922;83;20253;-75
2021/05/09 04:04:08;;;;;;;;;;;;;;;8.09;60.69;100861.78;1678665;85;20237;-75
2021/05/09 04:06:34;;;;;;;;;;;;;;;8.15;60.80;100853.61;1675022;84;20263;-75
2021/05/09 04:09:00;;;;;;;;;;;;;;;8.25;60.76;100845.43;1676565;84;20217;-76
2021/05/09 04:11:26;;;;;;;;;;;;;;;8.36;60.73;100842.83;1679469;85;20226;-75
2021/05/09 04:13:52;;;;;;;;;;;;;;;8.46;60.54;100836.34;1671616;85;20225;-75
2021/05/09 04:16:18;;;;;;;;;;;;;;;8.58;60.68;100836.30;1674499;85;20227;-75
2021/05/09 04:18:44;;;;;;;;;;;;;;;8.72;60.59;100837.53;1684001;85;20273;-75
2021/05/09 04:21:10;;;;;;;;;;;;;;;8.82;60.54;100843.50;1662162;85;20351;-75
2021/05/09 04:23:36;;;;;;;;;;;;;;;8.92;60.46;100842.12;1680031;83;20388;-75
2021/05/09 04:26:02;;;;;;;;;;;;;;;8.99;60.44;100848.10;1682277;85;20313;-75
2021/05/09 04:28:28;;;;;;;;;;;;;;;9.10;60.45;100854.05;1671214;85;20305;-75
2021/05/09 04:30:54;;;;;;;;;;;;;;;9.20;60.33;100849.70;1660868;85;20482;-75
2021/05/09 04:33:25;;;;;;;;;;;;;;;9.27;60.24;100845.78;1681867;84;20196;-75
2021/05/09 04:35:53;;;;;;;;;;;;;;;9.33;60.20;100841.01;1671826;85;20335;-75
2021/05/09 04:38:20;;;;;;;;;;;;;;;9.41;60.24;100849.95;1677011;85;20256;-74
2021/05/09 04:40:47;;;;;;;;;;;;;;;9.45;60.25;100843.90;1667439;85;20260;-75
2021/05/09 04:43:16;;;;;;;;;;;;;;;9.49;60.19;100843.01;1677464;84;20257;-75
2021/05/09 04:45:47;;;;;;;;;;;;;;;9.57;60.23;100836.06;1627259;85;199003;-75
2021/05/09 04:48:13;;;;;;;;;;;;;;;9.64;60.25;100833.84;1653419;85;20180;-75
2021/05/09 04:50:40;;;;;;;;;;;;;;;9.70;60.25;100836.38;1675506;85;20182;-75
2021/05/09 04:53:28;;;;;;;;;;;;;;;9.77;60.26;100834.59;1673401;84;20263;-75
2021/05/09 04:55:57;;;;;;;;;;;;;;;9.82;60.19;100838.00;1669361;85;20272;-75
2021/05/09 04:58:24;;;;;;;;;;;;;;;9.86;60.12;100830.64;1681147;84;20257;-75
2021/05/09 05:01:01;;;;;;;;;;;;;;;9.88;60.17;100824.56;1670559;84;20268;-74
2021/05/09 05:03:29;;;;;;;;;;;;;;;9.95;60.22;100830.52;1676786;84;20286;-74
2021/05/09 05:05:55;;;;;;;;;;;;;;;10.09;60.29;100829.09;1656351;85;20321;-74
2021/05/09 05:08:21;;;;;;;;;;;;;;;10.21;60.22;100821.23;1683881;84;20276;-75
2021/05/09 05:11:01;;;;;;;;;;;;;;;10.34;60.24;100828.42;1684470;84;20197;-75
2021/05/09 05:13:31;;;;;;;;;;;;;;;10.59;60.46;100825.93;1656786;85;20329;-75
2021/05/09 05:15:58;;;;;;;;;;;;;;;11.13;60.67;100826.02;1681525;85;20289;-75
2021/05/09 05:18:24;;;;;;;;;;;;;;;11.76;60.56;100824.55;1686704;84;20252;-75
2021/05/09 05:20:52;;;;;;;;;;;;;;;12.06;60.05;100819.27;1681009;84;20289;-74
2021/05/09 05:23:19;;;;;;;;;;;;;;;12.33;60.16;100812.70;1660051;83;20581;-74
2021/05/09 05:25:45;;;;;;;;;;;;;;;12.80;60.18;100815.57;1682291;84;20224;-74
2021/05/09 05:28:12;;;;;;;;;;;;;;;13.36;60.09;100815.58;1679414;85;20287;-74
2021/05/09 05:30:44;;;;;;;;;;;;;;;14.07;59.97;100802.42;1683380;84;20262;-74
2021/05/09 05:36:17;;;;;;;;;;;;;;;14.85;59.53;100807.54;1727102;82;20326;-74
2021/05/09 05:38:43;;;;;;;;;;;;;;;14.89;59.04;100809.60;1732431;82;20183;-74
2021/05/09 05:41:09;;;;;;;;;;;;;;;14.75;58.95;100809.16;1731663;81;20272;-75
2021/05/09 05:43:36;;;;;;;;;;;;;;;14.55;58.88;100807.18;1730107;82;20395;-75
2021/05/09 05:46:03;;;;;;;;;;;;;;;14.64;59.38;100814.69;1735352;82;20556;-75
2021/05/09 05:48:29;;;;;;;;;;;;;;;14.96;59.36;100813.72;1738751;82;20403;-75
2021/05/09 05:50:59;;;;;;;;;;;;;;;15.52;59.14;100811.89;1733703;82;20314;-75
2021/05/09 05:53:27;;;;;;;;;;;;;;;15.82;58.78;100806.55;1738645;82;20366;-75
2021/05/09 05:55:54;;;;;;;;;;;;;;;15.91;58.67;100797.55;1732386;82;20290;-75
2021/05/09 05:58:27;;;;;;;;;;;;;;;15.86;58.40;100802.93;1735311;82;20251;-75
2021/05/09 06:00:53;;;;;;;;;;;;;;;15.74;58.48;100799.44;1746129;80;20165;-75
2021/05/09 06:03:20;;;;;;;;;;;;;;;15.94;58.69;100799.60;1733769;81;20275;-75
2021/05/09 06:05:53;;;;;;;;;;;;;;;15.89;58.42;100797.16;1728168;82;20252;-75
2021/05/09 06:08:19;;;;;;;;;;;;;;;15.79;58.38;100794.92;1738521;82;20275;-74
2021/05/09 06:10:46;;;;;;;;;;;;;;;15.77;58.30;100798.88;1736097;82;20292;-75
2021/05/09 06:13:12;;;;;;;;;;;;;;;15.81;58.36;100801.78;1725908;82;20267;-75
2021/05/09 06:15:38;;;;;;;;;;;;;;;15.73;58.14;100800.34;1725345;82;20202;-75
2021/05/09 06:18:05;;;;;;;;;;;;;;;15.74;58.17;100798.14;1733354;81;20236;-74
2021/05/09 06:20:35;;;;;;;;;;;;;;;15.76;57.99;100798.94;1732472;81;20250;-75
2021/05/09 06:23:04;;;;;;;;;;;;;;;15.97;58.34;100802.56;1741815;81;20354;-75
2021/05/09 06:25:31;;;;;;;;;;;;;;;16.13;57.95;100806.30;1716427;81;20283;-75
2021/05/09 06:27:57;;;;;;;;;;;;;;;16.19;57.83;100800.86;1723837;82;20177;-75
2021/05/09 06:30:24;;;;;;;;;;;;;;;16.46;58.02;100799.00;1725516;82;20244;-75
2021/05/09 06:32:51;;;;;;;;;;;;;;;16.93;57.93;100791.97;1714942;82;20275;-74
2021/05/09 06:35:17;;;;;;;;;;;;;;;17.50;57.99;100791.81;1714214;82;20283;-75
2021/05/09 06:37:44;;;;;;;;;;;;;;;17.97;57.31;100787.63;1724394;82;20271;-76
2021/05/09 06:40:11;;;;;;;;;;;;;;;18.12;57.18;100790.42;1724061;82;20282;-76
2021/05/09 06:42:37;;;;;;;;;;;;;;;18.43;57.25;100795.11;1729437;82;20258;-76
2021/05/09 06:45:08;;;;;;;;;;;;;;;18.74;57.41;100786.69;1726889;80;20263;-76
2021/05/09 06:47:32;;;;;;;;;;;;;;;19.10;56.95;100781.47;1717656;82;20341;-76
2021/05/09 06:49:58;;;;;;;;;;;;;;;19.46;56.84;100787.11;1710912;82;20639;-76
2021/05/09 06:52:24;;;;;;;;;;;;;;;19.78;56.98;100777.61;1741465;81;20795;-76
2021/05/09 06:54:50;;;;;;;;;;;;;;;19.79;56.59;100781.94;1723571;82;20215;-76
2021/05/09 06:57:16;;;;;;;;;;;;;;;19.80;56.50;100787.11;1719005;82;20284;-76
2021/05/09 06:59:45;;;;;;;;;;;;;;;19.82;56.43;100785.25;1728938;82;20295;-76
2021/05/09 07:02:12;;;;;;;;;;;;;;;19.86;56.22;100788.56;1723722;80;20263;-76
2021/05/09 07:04:38;;;;;;;;;;;;;;;20.11;56.48;100793.39;1728826;82;20259;-76
2021/05/09 07:07:04;;;;;;;;;;;;;;;20.34;56.34;100790.36;1723564;82;20176;-77
2021/05/09 07:09:31;;;;;;;;;;;;;;;20.39;56.28;100798.88;1728919;82;20256;-77
2021/05/09 07:11:57;;;;;;;;;;;;;;;20.51;56.43;100798.69;1726104;82;20719;-76
2021/05/09 07:14:23;;;;;;;;;;;;;;;20.43;56.23;100789.91;1729151;82;20274;-77
2021/05/09 07:16:52;;;;;;;;;;;;;;;20.33;56.08;100787.36;1732573;82;20253;-76
2021/05/09 07:19:18;;;;;;;;;;;;;;;20.27;55.89;100786.40;1736764;82;20255;-76
2021/05/09 07:21:46;;;;;;;;;;;;;;;20.12;55.88;100784.59;1730906;82;20264;-76
2021/05/09 07:24:21;;;;;;;;;;;;;;;20.00;55.78;100783.45;1726064;82;20459;-76
2021/05/09 07:26:47;;;;;;;;;;;;;;;19.89;55.67;100784.94;1705115;81;20784;-76
2021/05/09 07:29:13;;;;;;;;;;;;;;;19.82;55.40;100785.72;1710299;81;20205;-76
2021/05/09 07:31:41;;;;;;;;;;;;;;;19.73;55.29;100779.66;1700178;83;20285;-76
2021/05/09 07:34:10;;;;;;;;;;;;;;;19.59;55.19;100788.23;1709865;83;20264;-76
2021/05/09 07:36:38;;;;;;;;;;;;;;;19.51;55.23;100793.01;1706087;82;20289;-76
2021/05/09 07:39:05;;;;;;;;;;;;;;;19.71;55.29;100791.55;1692406;83;20297;-76
2021/05/09 07:41:31;;;;;;;;;;;;;;;19.95;55.24;100788.55;1633196;86;20274;-76
2021/05/09 07:43:57;;;;;;;;;;;;;;;20.24;55.25;100787.88;1656994;86;20215;-77
2021/05/09 07:46:23;;;;;;;;;;;;;;;20.52;54.87;100792.50;1654548;84;20447;-76
2021/05/09 07:48:52;;;;;;;;;;;;;;;20.72;54.70;100786.16;1689904;84;20290;-76
2021/05/09 07:51:18;;;;;;;;;;;;;;;20.89;54.75;100787.82;1692561;83;20293;-76
2021/05/09 07:53:44;;;;;;;;;;;;;;;21.08;54.53;100787.16;1694949;83;20344;-76
2021/05/09 07:56:10;;;;;;;;;;;;;;;21.15;54.45;100774.90;1702960;83;20711;-76
2021/05/09 07:58:36;;;;;;;;;;;;;;;21.34;54.56;100773.84;1700593;83;20285;-76
2021/05/09 08:01:03;;;;;;;;;;;;;;;21.50;54.00;100778.59;1704234;82;20541;-76
2021/05/09 08:03:29;;;;;;;;;;;;;;;21.59;53.96;100772.78;1700502;81;20188;-76
2021/05/09 08:06:05;;;;;;;;;;;;;;;21.74;54.33;100771.03;1693279;83;20294;-77
2021/05/09 08:08:31;;;;;;;;;;;;;;;21.68;53.95;100764.34;1692059;83;20269;-77
2021/05/09 08:10:58;;;;;;;;;;;;;;;21.67;53.66;100759.17;1692095;83;20253;-76
2021/05/09 08:13:27;;;;;;;;;;;;;;;21.73;53.76;100763.60;1713809;83;20663;-76
2021/05/09 08:15:54;;;;;;;;;;;;;;;21.84;53.77;100759.45;1709025;83;20147;-76
2021/05/09 08:18:24;;;;;;;;;;;;;;;21.86;53.50;100758.88;1706586;83;20179;-76
2021/05/09 08:20:50;;;;;;;;;;;;;;;21.87;53.38;100761.89;1702944;83;20167;-76
2021/05/09 08:23:16;;;;;;;;;;;;;;;21.78;53.29;100761.55;1702778;82;20766;-76
2021/05/09 08:25:45;;;;;;;;;;;;;;;21.64;53.50;100756.25;1692593;83;20167;-76
2021/05/09 08:28:12;;;;;;;;;;;;;;;21.58;53.42;100757.94;1695891;82;20195;-76
2021/05/09 08:30:38;;;;;;;;;;;;;;;21.51;53.28;100761.02;1704391;83;20697;-76
2021/05/09 08:33:05;;;;;;;;;;;;;;;21.45;53.12;100757.81;1708649;83;20291;-76
2021/05/09 08:35:31;;;;;;;;;;;;;;;21.42;53.14;100761.94;1693549;83;20271;-76
2021/05/09 08:37:56;;;;;;;;;;;;;;;21.39;53.22;100761.27;1695645;83;20751;-76
2021/05/09 08:40:23;;;;;;;;;;;;;;;21.38;53.05;100762.20;1708263;83;20258;-76
2021/05/09 08:42:51;;;;;;;;;;;;;;;21.39;52.94;100766.06;1695651;83;20302;-76
2021/05/09 08:45:18;;;;;;;;;;;;;;;21.39;52.61;100762.58;1711307;83;20267;-76
2021/05/09 08:47:45;;;;;;;;;;;;;;;21.69;52.70;100760.77;1707410;83;20268;-76
2021/05/09 08:50:15;;;;;;;;;;;;;;;22.27;52.48;100749.80;1699803;81;20463;-77
2021/05/09 08:52:43;;;;;;;;;;;;;;;22.98;52.41;100753.56;1705514;83;20184;-77
2021/05/09 08:55:12;;;;;;;;;;;;;;;23.66;52.17;100747.64;1706317;83;20271;-76
2021/05/09 08:57:50;;;;;;;;;;;;;;;24.19;52.25;100743.52;1695044;83;20334;-77
2021/05/09 09:00:17;;;;;;;;;;;;;;;24.65;52.20;100756.47;1694220;83;20717;-76
2021/05/09 09:02:44;;;;;;;;;;;;;;;24.85;52.18;100754.17;1692285;83;20197;-76
2021/05/09 09:05:14;;;;;;;;;;;;;;;24.97;52.99;100743.54;1699451;83;20217;-76
2021/05/09 09:07:50;;;;;;;;;;;;;;;24.91;52.06;100744.47;1693567;83;20299;-76
2021/05/09 09:10:31;;;;;;;;;;;;;;;24.80;52.01;100751.02;1704509;83;20161;-76
2021/05/09 09:13:00;;;;;;;;;;;;;;;24.54;51.98;100741.86;1709526;82;20285;-76
2021/05/09 09:15:50;;;;;;;;;;;;;;;24.22;52.29;100740.19;1713717;82;20182;-76
2021/05/09 09:18:33;;;;;;;;;;;;;;;23.62;51.87;100740.88;1716717;83;20186;-76
2021/05/09 09:21:28;;;;;;;;;;;;;;;23.00;51.78;100738.48;1701183;83;20156;-77
2021/05/09 09:24:06;;;;;;;;;;;;;;;22.43;51.40;100741.27;1697295;83;20142;-77
2021/05/09 09:26:36;;;;;;;;;;;;;;;22.11;51.09;100741.53;1712404;83;20266;-76
2021/05/09 09:29:22;;;;;;;;;;;;;;;21.82;51.20;100737.66;1703048;82;20504;-76
2021/05/09 09:31:53;;;;;;;;;;;;;;;21.54;50.48;100732.73;1693350;83;20292;-76
2021/05/09 09:34:19;;;;;;;;;;;;;;;21.43;50.26;100727.27;1714474;81;20243;-76
2021/05/09 09:36:46;;;;;;;;;;;;;;;21.30;50.44;100724.54;1700320;83;20670;-76
2021/05/09 09:39:15;;;;;;;;;;;;;;;21.19;50.00;100728.70;1699943;83;20225;-76
2021/05/09 09:41:48;;;;;;;;;;;;;;;21.01;49.56;100726.66;1689331;82;20774;-76
2021/05/09 09:44:16;;;;;;;;;;;;;;;20.86;49.56;100725.75;1698213;83;20169;-76
2021/05/09 09:46:54;;;;;;;;;;;;;;;20.76;49.42;100729.40;1693056;83;20194;-76
2021/05/09 09:49:27;;;;;;;;;;;;;;;20.69;49.35;100724.57;1686029;83;20465;-76
2021/05/09 09:51:59;;;;;;;;;;;;;;;20.61;48.92;100713.17;1702122;83;20639;-76
2021/05/09 09:54:34;;;;;;;;;;;;;;;20.53;48.94;100718.01;1696557;83;20451;-76
2021/05/09 09:57:01;;;;;;;;;;;;;;;20.45;48.70;100715.80;1693902;83;20198;-76
2021/05/09 09:59:27;;;;;;;;;;;;;;;20.40;48.73;100709.95;1687548;83;20169;-76
2021/05/09 10:01:53;;;;;;;;;;;;;;;20.38;48.53;100706.56;1690111;83;20531;-76
2021/05/09 10:04:20;;;;;;;;;;;;;;;20.40;48.76;100708.64;1697925;83;20182;-76
2021/05/09 10:06:46;;;;;;;;;;;;;;;20.44;48.28;100710.17;1690218;83;20261;-76
2021/05/09 10:09:12;;;;;;;;;;;;;;;20.45;48.21;100708.39;1702804;83;20425;-76
2021/05/09 10:11:39;;;;;;;;;;;;;;;20.49;48.29;100702.03;1694756;83;20162;-76
2021/05/09 10:14:06;;;;;;;;;;;;;;;20.53;48.26;100719.32;1703397;83;20168;-76
2021/05/09 10:16:42;;;;;;;;;;;;;;;20.54;47.94;100716.23;1673335;83;20210;-76
2021/05/09 10:19:13;;;;;;;;;;;;;;;20.60;48.13;100709.32;1674492;83;20162;-76
2021/05/09 10:21:42;;;;;;;;;;;;;;;20.63;47.64;100705.20;1700660;82;20167;-76
2021/05/09 10:24:16;;;;;;;;;;;;;;;20.67;47.72;100697.53;1688971;83;20174;-76
2021/05/09 10:26:58;;;;;;;;;;;;;;;20.71;47.42;100714.82;1695286;83;20279;-77
2021/05/09 10:29:37;;;;;;;;;;;;;;;20.73;47.52;100705.92;1699054;83;20166;-76
2021/05/09 10:32:09;;;;;;;;;;;;;;;20.75;47.20;100705.36;1687383;83;20552;-76
2021/05/09 10:34:57;;;;;;;;;;;;;;;20.77;47.28;100703.50;1700174;82;20479;-76
2021/05/09 10:37:45;;;;;;;;;;;;;;;20.81;47.20;100694.94;1696149;83;20522;-76
2021/05/09 10:40:38;;;;;;;;;;;;;;;20.91;47.22;100687.38;1713464;81;20570;-76
2021/05/09 10:43:08;;;;;;;;;;;;;;;20.99;47.17;100682.52;1697487;83;20607;-76
2021/05/09 10:45:40;;;;;;;;;;;;;;;21.10;46.90;100686.69;1705857;83;20431;-76
2021/05/09 10:48:23;;;;;;;;;;;;;;;21.08;47.08;100683.30;1704700;83;20168;-76
2021/05/09 10:51:04;;;;;;;;;;;;;;;21.11;46.71;100681.81;1702231;83;20530;-76
2021/05/09 10:53:37;;;;;;;;;;;;;;;21.15;46.75;100677.59;1713808;82;20261;-76
2021/05/09 10:56:08;;;;;;;;;;;;;;;21.17;46.70;100672.72;1708447;83;20630;-76
2021/05/09 10:58:50;;;;;;;;;;;;;;;21.18;46.80;100675.72;1696800;83;20176;-76
2021/05/09 11:01:24;;;;;;;;;;;;;;;21.19;46.50;100664.27;1711734;83;20542;-76
2021/05/09 11:03:56;;;;;;;;;;;;;;;21.20;46.58;100652.34;1702193;81;20183;-77
2021/05/09 11:06:37;;;;;;;;;;;;;;;21.28;46.57;100656.71;1717375;83;20532;-77
2021/05/09 11:09:12;;;;;;;;;;;;;;;21.34;46.27;100653.68;1695921;83;20189;-77
2021/05/09 11:11:41;;;;;;;;;;;;;;;21.32;46.13;100650.30;1706302;83;20504;-77
2021/05/09 11:14:15;;;;;;;;;;;;;;;21.31;46.28;100653.05;1702802;83;20283;-77
2021/05/09 11:16:44;;;;;;;;;;;;;;;21.36;46.05;100652.27;1707888;82;20460;-77
2021/05/09 11:19:13;;;;;;;;;;;;;;;21.39;46.12;100644.20;1649400;86;20260;-77
2021/05/09 11:21:45;;;;;;;;;;;;;;;21.44;46.07;100640.82;1648656;86;20178;-77
2021/05/09 11:24:18;;;;;;;;;;;;;;;21.51;46.05;100648.72;1645849;86;20542;-78
2021/05/09 11:26:46;;;;;;;;;;;;;;;21.57;45.87;100636.51;1644338;86;20495;-78
2021/05/09 11:29:17;;;;;;;;;;;;;;;21.58;45.86;100641.30;1643782;86;20565;-77
2021/05/09 11:31:51;;;;;;;;;;;;;;;21.60;45.78;100635.00;1655953;86;20557;-77
2021/05/09 11:34:18;;;;;;;;;;;;;;;21.61;45.97;100631.43;1651635;86;20576;-77
2021/05/09 11:36:49;;;;;;;;;;;;;;;21.65;45.90;100627.67;1648914;86;20217;-77
2021/05/09 11:39:21;;;;;;;;;;;;;;;21.69;45.72;100625.23;1646949;86;20570;-77
2021/05/09 11:41:55;;;;;;;;;;;;;;;21.74;45.90;100627.11;1645112;86;20313;-77
2021/05/09 11:44:26;;;;;;;;;;;;;;;21.77;45.51;100628.23;1649223;86;20664;-77
2021/05/09 11:46:53;;;;;;;;;;;;;;;21.77;45.54;100619.48;1652180;86;20265;-77
2021/05/09 11:49:22;;;;;;;;;;;;;;;21.75;45.48;100621.37;1656072;86;20630;-77
2021/05/09 11:52:02;;;;;;;;;;;;;;;21.75;45.65;100614.79;1621011;87;20604;-77
2021/05/09 11:54:30;;;;;;;;;;;;;;;21.75;45.31;100616.95;1652093;85;20726;-77
2021/05/09 11:57:01;;;;;;;;;;;;;;;21.74;45.26;100622.31;1675915;83;20618;-78
2021/05/09 11:59:35;;;;;;;;;;;;;;;21.75;45.06;100609.52;1703447;83;20698;-77
2021/05/09 12:02:04;;;;;;;;;;;;;;;21.76;45.08;100603.32;1697546;82;20558;-77
2021/05/09 12:04:31;;;;;;;;;;;;;;;21.77;44.97;100603.22;1713508;82;20560;-77
2021/05/09 12:06:59;;;;;;;;;;;;;;;21.79;45.03;100595.23;1666337;84;20523;-77
2021/05/09 12:09:29;;;;;;;;;;;;;;;21.80;44.99;100594.29;1677923;83;20681;-78
2021/05/09 12:11:56;;;;;;;;;;;;;;;21.82;45.00;100596.36;1650859;85;20687;-77
2021/05/09 12:14:27;;;;;;;;;;;;;;;21.84;44.83;100588.33;1675039;84;20567;-77
2021/05/09 12:16:53;;;;;;;;;;;;;;;21.84;44.83;100582.59;1691631;84;20558;-77
2021/05/09 12:19:19;;;;;;;;;;;;;;;21.85;44.79;100579.48;1697068;83;20568;-78
2021/05/09 12:22:01;;;;;;;;;;;;;;;21.88;44.69;100579.30;1684625;83;20650;-78
2021/05/09 12:24:27;;;;;;;;;;;;;;;21.91;44.89;100579.10;1689050;84;20673;-77
2021/05/09 12:27:06;;;;;;;;;;;;;;;21.94;44.72;100584.17;1690053;84;20560;-77
2021/05/09 12:29:47;;;;;;;;;;;;;;;21.96;44.74;100587.55;1667741;84;20786;-77
2021/05/09 12:32:23;;;;;;;;;;;;;;;21.97;44.58;100587.45;1695976;84;20521;-77
2021/05/09 12:35:07;;;;;;;;;;;;;;;21.95;44.62;100580.13;1685946;83;20328;-77
2021/05/09 12:37:48;;;;;;;;;;;;;;;21.99;44.76;100585.58;1638162;85;20312;-77
2021/05/09 12:40:20;;;;;;;;;;;;;;;22.04;44.66;100583.99;1628883;86;20328;-77
2021/05/09 12:43:06;;;;;;;;;;;;;;;22.06;44.43;100582.11;1640740;86;20721;-77
2021/05/09 12:45:45;;;;;;;;;;;;;;;22.02;44.53;100573.56;1619853;87;20290;-78
2021/05/09 12:48:23;;;;;;;;;;;;;;;21.99;44.51;100565.83;1627326;87;20525;-77
2021/05/09 12:50:57;;;;;;;;;;;;;;;21.93;44.44;100585.96;1625774;85;21084;-77
2021/05/09 12:53:43;;;;;;;;;;;;;;;21.96;44.43;100583.61;1622741;87;20247;-75